createdAt,value
2018-12-20T00:04:15.306Z,-0.34
2018-12-20T00:14:34.823Z,-0.65
2018-12-20T00:24:54.213Z,-0.65
2018-12-20T00:35:14.675Z,-0.70
2018-12-20T00:45:33.824Z,-0.60
2018-12-20T00:55:53.943Z,-0.60
2018-12-20T01:06:13.363Z,-0.51
2018-12-20T01:16:32.916Z,-0.50
2018-12-20T01:26:52.989Z,-0.52
2018-12-20T01:37:12.139Z,-0.75
2018-12-20T01:47:32.242Z,-0.75
2018-12-20T01:57:52.154Z,-0.79
2018-12-20T02:08:11.390Z,-0.74
2018-12-20T02:18:30.353Z,-0.75
2018-12-20T02:28:50.141Z,-0.70
2018-12-20T02:39:11.180Z,-0.63
2018-12-20T02:49:30.610Z,-0.66
2018-12-20T02:59:53.516Z,-0.58
2018-12-20T03:10:12.792Z,-0.58
2018-12-20T03:20:33.058Z,-0.55
2018-12-20T03:30:53.202Z,-0.77
2018-12-20T03:41:13.040Z,-0.77
2018-12-20T03:51:32.061Z,-0.56
2018-12-20T04:01:51.406Z,-0.55
2018-12-20T04:12:10.571Z,-0.63
2018-12-20T04:22:30.192Z,-0.62
2018-12-20T04:32:49.895Z,-0.59
2018-12-20T04:43:10.093Z,-0.59
2018-12-20T04:53:31.689Z,-0.65
2018-12-20T05:03:51.331Z,-0.62
2018-12-20T05:14:10.551Z,-0.65
2018-12-20T05:24:30.505Z,-0.58
2018-12-20T05:34:50.762Z,-0.71
2018-12-20T05:45:13.074Z,-0.79
2018-12-20T05:55:32.813Z,-0.78
2018-12-20T06:05:52.260Z,-0.78
2018-12-20T06:16:12.952Z,-0.69
2018-12-20T06:26:31.734Z,-0.69
2018-12-20T06:36:52.766Z,-0.69
2018-12-20T06:47:12.201Z,-0.65
2018-12-20T06:57:33.535Z,-0.60
2018-12-20T07:07:52.659Z,-0.53
2018-12-20T07:18:12.424Z,-0.27
2018-12-20T07:28:31.716Z,-0.27
2018-12-20T07:38:51.644Z,-0.24
2018-12-20T07:49:12.061Z,0.09
2018-12-20T07:59:32.201Z,0.19
2018-12-20T08:09:52.021Z,0.35
2018-12-20T08:20:12.615Z,0.34
2018-12-20T08:30:32.910Z,0.65
2018-12-20T08:40:52.874Z,0.86
2018-12-20T08:51:12.387Z,1.04
2018-12-20T09:01:32.644Z,1.10
2018-12-20T09:11:52.252Z,1.28
2018-12-20T09:22:12.020Z,2.15
2018-12-20T09:32:31.735Z,2.42
2018-12-20T09:42:52.481Z,2.67
2018-12-20T09:53:12.777Z,2.44
2018-12-20T10:03:32.440Z,2.22
2018-12-20T10:13:52.508Z,2.28
2018-12-20T10:24:12.174Z,2.23
2018-12-20T10:34:31.688Z,2.44
2018-12-20T10:44:50.761Z,2.34
2018-12-20T10:55:10.032Z,2.25
2018-12-20T11:05:48.256Z,2.61
2018-12-20T11:16:08.112Z,3.01
2018-12-20T11:26:27.458Z,2.85
2018-12-20T11:36:47.180Z,2.61
2018-12-20T11:47:26.431Z,2.81
2018-12-20T11:57:45.707Z,3.32
2018-12-20T12:08:04.976Z,3.68
2018-12-20T12:18:24.622Z,3.86
2018-12-20T12:28:46.546Z,3.68
2018-12-20T12:39:08.228Z,3.50
2018-12-20T12:49:27.977Z,3.27
2018-12-20T12:59:47.542Z,3.24
2018-12-20T13:10:07.801Z,3.51
2018-12-20T13:20:28.405Z,3.66
2018-12-20T13:30:48.768Z,3.54
2018-12-20T13:41:08.992Z,3.27
2018-12-20T13:51:28.705Z,3.26
2018-12-20T14:01:48.436Z,3.36
2018-12-20T14:12:08.401Z,3.09
2018-12-20T14:22:27.741Z,2.93
2018-12-20T14:32:47.856Z,3.10
2018-12-20T14:43:07.905Z,2.80
2018-12-20T14:53:27.781Z,2.52
2018-12-20T15:03:47.220Z,2.58
2018-12-20T15:14:06.487Z,2.19
2018-12-20T15:24:26.607Z,2.19
2018-12-20T15:34:47.149Z,2.13
2018-12-20T15:45:08.839Z,2.01
2018-12-20T15:55:28.286Z,1.73
2018-12-20T16:05:48.404Z,1.41
2018-12-20T16:16:08.608Z,1.31
2018-12-20T16:26:28.562Z,1.17
2018-12-20T16:36:48.859Z,1.08
2018-12-20T16:47:08.744Z,0.95
2018-12-20T16:57:28.952Z,0.65
2018-12-20T17:07:49.379Z,0.46
2018-12-20T17:18:09.403Z,0.24
2018-12-20T17:28:28.934Z,0.27
2018-12-20T17:38:49.528Z,0.07
2018-12-20T17:49:11.060Z,-0.08
2018-12-20T17:59:31.425Z,0.25
2018-12-20T18:09:51.015Z,0.24
2018-12-20T18:20:11.354Z,-0.31
2018-12-20T18:30:31.698Z,-0.31
2018-12-20T18:40:51.789Z,-0.17
2018-12-20T18:51:11.350Z,-0.53
2018-12-20T19:01:31.853Z,-0.43
2018-12-20T19:11:52.954Z,-0.31
2018-12-20T19:22:13.309Z,-0.33
2018-12-20T19:32:33.146Z,-0.33
2018-12-20T19:42:53.227Z,-0.82
2018-12-20T19:53:14.154Z,-1.22
2018-12-20T20:03:34.397Z,-1.22
2018-12-20T20:13:55.004Z,-1.33
2018-12-20T20:24:17.471Z,-1.38
2018-12-20T20:34:38.830Z,-1.24
2018-12-20T20:44:58.727Z,-1.25
2018-12-20T20:55:18.684Z,-1.25
2018-12-20T21:05:38.409Z,-1.35
2018-12-20T21:15:59.624Z,-1.17
2018-12-20T21:26:20.174Z,-1.20
2018-12-20T21:36:39.944Z,-1.33
2018-12-20T21:47:00.453Z,-1.45
2018-12-20T21:57:21.596Z,-1.22
2018-12-20T22:07:40.768Z,-1.18
2018-12-20T22:18:02.177Z,-1.08
2018-12-20T22:28:22.025Z,-1.26
2018-12-20T22:38:42.835Z,-0.73
2018-12-20T22:49:02.344Z,-0.73
2018-12-20T22:59:23.108Z,-0.60
2018-12-20T23:09:42.783Z,-0.40
2018-12-20T23:20:03.015Z,-0.40
2018-12-20T23:30:22.560Z,-0.15
2018-12-20T23:40:42.199Z,0.38
2018-12-20T23:51:01.460Z,1.56
